sensor_id;sensor_type;location;lat;lon;timestamp;pressure;altitude;pressure_sealevel;temperature;humidity
65131;BME280;51709;54.912;8.316;2022-08-19T00:01:08;101267.63;;;18.05;78.15
65131;BME280;51709;54.912;8.316;2022-08-19T00:06:29;101256.59;;;17.99;78.25
65131;BME280;51709;54.912;8.316;2022-08-19T00:11:53;101243.72;;;17.98;78.24
65131;BME280;51709;54.912;8.316;2022-08-19T00:17:15;101243.72;;;17.98;78.23
65131;BME280;51709;54.912;8.316;2022-08-19T00:22:37;101237.00;;;17.92;78.43
65131;BME280;51709;54.912;8.316;2022-08-19T00:27:59;101234.50;;;17.91;78.43
65131;BME280;51709;54.912;8.316;2022-08-19T00:33:19;101244.78;;;17.92;78.39
65131;BME280;51709;54.912;8.316;2022-08-19T00:38:40;101245.72;;;17.91;78.51
65131;BME280;51709;54.912;8.316;2022-08-19T00:44:11;101237.09;;;17.91;78.30
65131;BME280;51709;54.912;8.316;2022-08-19T00:49:48;101232.72;;;17.91;78.26
65131;BME280;51709;54.912;8.316;2022-08-19T00:55:16;101222.34;;;17.91;78.23
65131;BME280;51709;54.912;8.316;2022-08-19T01:00:39;101237.91;;;17.91;78.33
65131;BME280;51709;54.912;8.316;2022-08-19T01:05:59;101227.81;;;17.85;78.69
65131;BME280;51709;54.912;8.316;2022-08-19T01:11:20;101222.75;;;17.82;78.68
65131;BME280;51709;54.912;8.316;2022-08-19T01:16:42;101216.66;;;17.83;78.56
65131;BME280;51709;54.912;8.316;2022-08-19T01:27:50;101208.19;;;17.79;78.69
65131;BME280;51709;54.912;8.316;2022-08-19T01:33:13;101206.50;;;17.78;78.81
65131;BME280;51709;54.912;8.316;2022-08-19T01:38:36;101192.66;;;17.78;78.57
65131;BME280;51709;54.912;8.316;2022-08-19T01:44:06;101195.13;;;17.81;78.55
65131;BME280;51709;54.912;8.316;2022-08-19T01:49:38;101202.69;;;17.85;78.77
65131;BME280;51709;54.912;8.316;2022-08-19T01:54:59;101208.66;;;17.87;78.42
65131;BME280;51709;54.912;8.316;2022-08-19T02:00:22;101193.91;;;17.88;78.44
65131;BME280;51709;54.912;8.316;2022-08-19T02:05:44;101192.78;;;17.94;78.57
65131;BME280;51709;54.912;8.316;2022-08-19T02:11:07;101188.53;;;17.93;78.36
65131;BME280;51709;54.912;8.316;2022-08-19T02:16:28;101187.75;;;17.91;78.54
65131;BME280;51709;54.912;8.316;2022-08-19T02:21:48;101192.69;;;17.97;78.50
65131;BME280;51709;54.912;8.316;2022-08-19T02:27:09;101194.38;;;17.98;78.48
65131;BME280;51709;54.912;8.316;2022-08-19T02:32:30;101199.56;;;17.98;78.65
65131;BME280;51709;54.912;8.316;2022-08-19T02:37:58;101206.22;;;18.04;78.62
65131;BME280;51709;54.912;8.316;2022-08-19T02:43:37;101214.72;;;18.07;78.62
65131;BME280;51709;54.912;8.316;2022-08-19T02:49:20;101207.69;;;18.09;78.64
65131;BME280;51709;54.912;8.316;2022-08-19T02:54:40;101214.44;;;18.13;78.37
65131;BME280;51709;54.912;8.316;2022-08-19T03:00:05;101207.41;;;18.15;78.27
65131;BME280;51709;54.912;8.316;2022-08-19T03:05:26;101212.44;;;18.18;78.33
65131;BME280;51709;54.912;8.316;2022-08-19T03:11:13;101221.16;;;18.17;78.51
65131;BME280;51709;54.912;8.316;2022-08-19T03:16:44;101215.91;;;18.19;78.33
65131;BME280;51709;54.912;8.316;2022-08-19T03:22:05;101216.69;;;18.21;78.48
65131;BME280;51709;54.912;8.316;2022-08-19T03:27:25;101199.19;;;18.25;78.32
65131;BME280;51709;54.912;8.316;2022-08-19T03:32:54;101198.19;;;18.27;78.40
65131;BME280;51709;54.912;8.316;2022-08-19T03:38:16;101206.06;;;18.26;78.36
65131;BME280;51709;54.912;8.316;2022-08-19T03:43:38;101211.47;;;18.21;78.47
65131;BME280;51709;54.912;8.316;2022-08-19T03:49:01;101202.22;;;18.15;78.64
65131;BME280;51709;54.912;8.316;2022-08-19T03:54:25;101215.13;;;18.17;78.64
65131;BME280;51709;54.912;8.316;2022-08-19T03:59:45;101229.66;;;18.21;78.70
65131;BME280;51709;54.912;8.316;2022-08-19T04:05:06;101207.03;;;18.23;78.56
65131;BME280;51709;54.912;8.316;2022-08-19T04:10:28;101211.31;;;18.24;78.58
65131;BME280;51709;54.912;8.316;2022-08-19T04:15:49;101204.19;;;18.10;78.80
65131;BME280;51709;54.912;8.316;2022-08-19T04:21:16;101190.63;;;17.84;79.31
65131;BME280;51709;54.912;8.316;2022-08-19T04:26:37;101188.03;;;17.84;79.47
65131;BME280;51709;54.912;8.316;2022-08-19T04:31:59;101199.75;;;17.74;79.62
65131;BME280;51709;54.912;8.316;2022-08-19T04:37:29;101204.09;;;17.74;79.81
65131;BME280;51709;54.912;8.316;2022-08-19T04:42:55;101201.72;;;17.69;79.71
65131;BME280;51709;54.912;8.316;2022-08-19T04:48:17;101216.72;;;17.62;80.00
65131;BME280;51709;54.912;8.316;2022-08-19T04:53:47;101212.69;;;17.55;80.40
65131;BME280;51709;54.912;8.316;2022-08-19T04:59:08;101205.81;;;17.54;79.98
65131;BME280;51709;54.912;8.316;2022-08-19T05:04:28;101205.97;;;17.51;80.19
65131;BME280;51709;54.912;8.316;2022-08-19T05:09:51;101198.19;;;17.51;79.88
65131;BME280;51709;54.912;8.316;2022-08-19T05:15:18;101206.69;;;17.54;79.67
65131;BME280;51709;54.912;8.316;2022-08-19T05:20:39;101209.19;;;17.56;79.55
65131;BME280;51709;54.912;8.316;2022-08-19T05:26:19;101223.72;;;17.60;79.33
65131;BME280;51709;54.912;8.316;2022-08-19T05:31:40;101224.63;;;17.59;79.43
65131;BME280;51709;54.912;8.316;2022-08-19T05:37:02;101230.31;;;17.67;79.13
65131;BME280;51709;54.912;8.316;2022-08-19T05:42:23;101231.94;;;17.70;79.07
65131;BME280;51709;54.912;8.316;2022-08-19T05:47:43;101242.97;;;17.75;78.69
65131;BME280;51709;54.912;8.316;2022-08-19T05:53:05;101254.97;;;17.78;78.64
65131;BME280;51709;54.912;8.316;2022-08-19T05:58:26;101269.22;;;17.88;78.33
65131;BME280;51709;54.912;8.316;2022-08-19T06:03:47;101267.72;;;18.03;77.81
65131;BME280;51709;54.912;8.316;2022-08-19T06:09:08;101261.75;;;18.20;77.35
65131;BME280;51709;54.912;8.316;2022-08-19T06:14:32;101250.44;;;18.40;76.66
65131;BME280;51709;54.912;8.316;2022-08-19T06:19:59;101260.97;;;18.37;76.85
65131;BME280;51709;54.912;8.316;2022-08-19T06:25:20;101258.63;;;18.31;76.66
65131;BME280;51709;54.912;8.316;2022-08-19T06:30:40;101266.44;;;18.31;76.70
65131;BME280;51709;54.912;8.316;2022-08-19T06:36:02;101260.97;;;18.37;76.42
65131;BME280;51709;54.912;8.316;2022-08-19T06:41:24;101260.44;;;18.48;76.30
65131;BME280;51709;54.912;8.316;2022-08-19T06:46:45;101282.41;;;18.60;75.72
65131;BME280;51709;54.912;8.316;2022-08-19T06:52:14;101291.03;;;18.60;75.67
65131;BME280;51709;54.912;8.316;2022-08-19T06:57:36;101285.28;;;18.54;76.09
65131;BME280;51709;54.912;8.316;2022-08-19T07:02:56;101292.63;;;18.26;76.53
65131;BME280;51709;54.912;8.316;2022-08-19T07:08:24;101302.19;;;18.07;76.90
65131;BME280;51709;54.912;8.316;2022-08-19T07:13:49;101289.41;;;18.21;76.67
65131;BME280;51709;54.912;8.316;2022-08-19T07:19:14;101295.78;;;18.33;76.10
65131;BME280;51709;54.912;8.316;2022-08-19T07:24:38;101286.81;;;18.40;75.75
65131;BME280;51709;54.912;8.316;2022-08-19T07:30:10;101280.41;;;18.65;75.06
65131;BME280;51709;54.912;8.316;2022-08-19T07:35:32;101287.25;;;18.85;74.35
65131;BME280;51709;54.912;8.316;2022-08-19T07:40:53;101284.47;;;19.07;73.90
65131;BME280;51709;54.912;8.316;2022-08-19T07:46:14;101297.25;;;19.12;73.88
65131;BME280;51709;54.912;8.316;2022-08-19T07:51:35;101300.06;;;19.25;73.78
65131;BME280;51709;54.912;8.316;2022-08-19T07:56:57;101298.16;;;19.46;73.02
65131;BME280;51709;54.912;8.316;2022-08-19T08:02:18;101294.38;;;19.69;72.83
65131;BME280;51709;54.912;8.316;2022-08-19T08:07:39;101298.13;;;20.13;71.58
65131;BME280;51709;54.912;8.316;2022-08-19T08:13:18;101305.97;;;20.77;69.63
65131;BME280;51709;54.912;8.316;2022-08-19T08:18:39;101311.34;;;21.35;68.10
65131;BME280;51709;54.912;8.316;2022-08-19T08:24:02;101321.13;;;21.62;67.59
65131;BME280;51709;54.912;8.316;2022-08-19T08:29:23;101324.06;;;21.99;67.07
65131;BME280;51709;54.912;8.316;2022-08-19T08:34:45;101340.66;;;22.13;66.63
65131;BME280;51709;54.912;8.316;2022-08-19T08:40:28;101326.16;;;22.36;66.07
65131;BME280;51709;54.912;8.316;2022-08-19T08:45:55;101328.91;;;22.20;66.50
65131;BME280;51709;54.912;8.316;2022-08-19T08:51:21;101327.97;;;22.21;65.98
65131;BME280;51709;54.912;8.316;2022-08-19T08:56:44;101326.81;;;22.54;65.07
65131;BME280;51709;54.912;8.316;2022-08-19T09:02:05;101328.50;;;23.36;63.08
65131;BME280;51709;54.912;8.316;2022-08-19T09:07:50;101324.94;;;23.50;62.06
65131;BME280;51709;54.912;8.316;2022-08-19T09:19:03;101337.28;;;24.37;60.47
65131;BME280;51709;54.912;8.316;2022-08-19T09:24:26;101337.03;;;24.28;60.19
65131;BME280;51709;54.912;8.316;2022-08-19T09:29:52;101337.44;;;24.22;60.65
65131;BME280;51709;54.912;8.316;2022-08-19T09:35:14;101345.31;;;24.22;60.23
65131;BME280;51709;54.912;8.316;2022-08-19T09:40:35;101338.44;;;24.70;58.93
65131;BME280;51709;54.912;8.316;2022-08-19T09:45:57;101344.03;;;24.52;58.52
65131;BME280;51709;54.912;8.316;2022-08-19T09:56:31;101340.66;;;25.23;56.52
65131;BME280;51709;54.912;8.316;2022-08-19T10:01:53;101341.00;;;25.18;56.76
65131;BME280;51709;54.912;8.316;2022-08-19T10:07:23;101338.09;;;25.46;56.08
65131;BME280;51709;54.912;8.316;2022-08-19T10:12:56;101348.47;;;26.38;53.87
65131;BME280;51709;54.912;8.316;2022-08-19T10:18:18;101344.03;;;27.67;51.09
65131;BME280;51709;54.912;8.316;2022-08-19T10:23:42;101333.00;;;28.83;47.76
65131;BME280;51709;54.912;8.316;2022-08-19T10:29:05;101340.22;;;31.04;43.02
65131;BME280;51709;54.912;8.316;2022-08-19T10:34:30;101331.81;;;31.62;42.11
65131;BME280;51709;54.912;8.316;2022-08-19T10:39:51;101337.28;;;32.11;41.54
65131;BME280;51709;54.912;8.316;2022-08-19T10:45:12;101332.50;;;32.15;41.80
65131;BME280;51709;54.912;8.316;2022-08-19T10:50:33;101326.50;;;32.21;42.05
65131;BME280;51709;54.912;8.316;2022-08-19T10:56:12;101320.50;;;31.25;44.14
65131;BME280;51709;54.912;8.316;2022-08-19T11:01:51;101332.94;;;29.22;47.75
65131;BME280;51709;54.912;8.316;2022-08-19T11:07:15;101314.06;;;28.19;49.09
65131;BME280;51709;54.912;8.316;2022-08-19T11:12:37;101310.81;;;28.06;48.68
65131;BME280;51709;54.912;8.316;2022-08-19T11:18:02;101312.06;;;27.40;49.35
65131;BME280;51709;54.912;8.316;2022-08-19T11:23:24;101316.88;;;27.46;48.54
65131;BME280;51709;54.912;8.316;2022-08-19T11:28:45;101307.25;;;28.66;46.25
65131;BME280;51709;54.912;8.316;2022-08-19T11:34:07;101312.06;;;30.41;42.70
65131;BME280;51709;54.912;8.316;2022-08-19T11:39:30;101316.19;;;31.24;41.31
65131;BME280;51709;54.912;8.316;2022-08-19T11:44:52;101311.75;;;30.44;43.11
65131;BME280;51709;54.912;8.316;2022-08-19T11:50:13;101321.44;;;30.35;42.56
65131;BME280;51709;54.912;8.316;2022-08-19T11:55:37;101319.91;;;30.15;43.01
65131;BME280;51709;54.912;8.316;2022-08-19T12:01:11;101303.88;;;29.88;43.09
65131;BME280;51709;54.912;8.316;2022-08-19T12:06:33;101309.31;;;29.87;42.82
65131;BME280;51709;54.912;8.316;2022-08-19T12:11:54;101320.47;;;30.36;41.85
65131;BME280;51709;54.912;8.316;2022-08-19T12:17:15;101311.56;;;30.55;41.00
65131;BME280;51709;54.912;8.316;2022-08-19T12:22:37;101309.72;;;29.92;41.95
65131;BME280;51709;54.912;8.316;2022-08-19T12:27:58;101308.22;;;29.04;42.29
65131;BME280;51709;54.912;8.316;2022-08-19T12:33:20;101302.50;;;29.56;41.04
65131;BME280;51709;54.912;8.316;2022-08-19T12:38:44;101307.13;;;30.64;39.19
65131;BME280;51709;54.912;8.316;2022-08-19T12:44:05;101311.28;;;30.85;38.60
65131;BME280;51709;54.912;8.316;2022-08-19T12:49:29;101299.09;;;30.38;39.36
65131;BME280;51709;54.912;8.316;2022-08-19T12:55:10;101292.66;;;29.48;40.56
65131;BME280;51709;54.912;8.316;2022-08-19T13:00:31;101286.44;;;29.30;40.63
65131;BME280;51709;54.912;8.316;2022-08-19T13:05:53;101290.91;;;29.39;40.13
65131;BME280;51709;54.912;8.316;2022-08-19T13:11:17;101276.84;;;29.29;39.76
65131;BME280;51709;54.912;8.316;2022-08-19T13:16:39;101288.59;;;29.06;39.69
65131;BME280;51709;54.912;8.316;2022-08-19T13:22:00;101292.25;;;28.86;39.83
65131;BME280;51709;54.912;8.316;2022-08-19T13:27:21;101287.69;;;28.49;40.24
65131;BME280;51709;54.912;8.316;2022-08-19T13:32:42;101281.59;;;27.88;41.30
65131;BME280;51709;54.912;8.316;2022-08-19T13:38:21;101284.00;;;27.29;42.16
65131;BME280;51709;54.912;8.316;2022-08-19T13:43:42;101285.41;;;28.05;40.46
65131;BME280;51709;54.912;8.316;2022-08-19T13:49:02;101274.63;;;27.67;41.20
65131;BME280;51709;54.912;8.316;2022-08-19T13:54:24;101270.63;;;27.82;41.25
65131;BME280;51709;54.912;8.316;2022-08-19T13:59:45;101272.59;;;27.90;40.83
65131;BME280;51709;54.912;8.316;2022-08-19T14:05:08;101269.47;;;27.65;41.52
65131;BME280;51709;54.912;8.316;2022-08-19T14:10:29;101266.28;;;26.67;43.35
65131;BME280;51709;54.912;8.316;2022-08-19T14:15:51;101264.31;;;26.81;43.18
65131;BME280;51709;54.912;8.316;2022-08-19T14:21:18;101267.81;;;26.49;44.01
65131;BME280;51709;54.912;8.316;2022-08-19T14:26:40;101268.88;;;26.79;43.66
65131;BME280;51709;54.912;8.316;2022-08-19T14:32:01;101273.19;;;26.47;43.76
65131;BME280;51709;54.912;8.316;2022-08-19T14:37:22;101278.00;;;25.52;45.99
65131;BME280;51709;54.912;8.316;2022-08-19T14:42:44;101272.34;;;25.91;45.70
65131;BME280;51709;54.912;8.316;2022-08-19T14:48:07;101258.66;;;25.76;46.67
65131;BME280;51709;54.912;8.316;2022-08-19T14:53:38;101260.38;;;26.75;45.27
65131;BME280;51709;54.912;8.316;2022-08-19T14:58:58;101251.56;;;26.65;45.97
65131;BME280;51709;54.912;8.316;2022-08-19T15:04:21;101257.81;;;26.64;46.37
65131;BME280;51709;54.912;8.316;2022-08-19T15:09:42;101246.03;;;27.31;44.76
65131;BME280;51709;54.912;8.316;2022-08-19T15:15:02;101241.38;;;28.05;43.45
65131;BME280;51709;54.912;8.316;2022-08-19T15:20:23;101227.50;;;28.52;42.39
65131;BME280;51709;54.912;8.316;2022-08-19T15:25:44;101235.78;;;27.89;44.02
65131;BME280;51709;54.912;8.316;2022-08-19T15:31:05;101247.56;;;27.75;44.59
65131;BME280;51709;54.912;8.316;2022-08-19T15:36:26;101230.59;;;28.38;43.06
65131;BME280;51709;54.912;8.316;2022-08-19T15:41:47;101241.38;;;30.59;39.10
65131;BME280;51709;54.912;8.316;2022-08-19T15:47:07;101241.22;;;30.87;38.60
65131;BME280;51709;54.912;8.316;2022-08-19T15:52:28;101241.38;;;30.05;40.54
65131;BME280;51709;54.912;8.316;2022-08-19T15:57:48;101230.91;;;29.86;41.30
65131;BME280;51709;54.912;8.316;2022-08-19T16:03:41;101237.72;;;29.42;42.23
65131;BME280;51709;54.912;8.316;2022-08-19T16:09:23;101230.03;;;30.13;41.26
65131;BME280;51709;54.912;8.316;2022-08-19T16:14:46;101242.53;;;30.39;40.81
65131;BME280;51709;54.912;8.316;2022-08-19T16:20:09;101234.41;;;29.86;42.27
65131;BME280;51709;54.912;8.316;2022-08-19T16:25:30;101233.28;;;28.95;44.30
65131;BME280;51709;54.912;8.316;2022-08-19T16:30:50;101246.50;;;27.87;46.70
65131;BME280;51709;54.912;8.316;2022-08-19T16:36:11;101252.97;;;27.32;48.58
65131;BME280;51709;54.912;8.316;2022-08-19T16:41:32;101243.47;;;26.77;50.14
65131;BME280;51709;54.912;8.316;2022-08-19T16:46:53;101236.38;;;26.89;49.88
65131;BME280;51709;54.912;8.316;2022-08-19T16:52:18;101233.97;;;26.65;50.51
65131;BME280;51709;54.912;8.316;2022-08-19T17:01:36;101232.38;;;25.42;53.82
65131;BME280;51709;54.912;8.316;2022-08-19T17:06:57;101229.91;;;26.40;51.65
65131;BME280;51709;54.912;8.316;2022-08-19T17:12:18;101232.72;;;25.72;53.55
65131;BME280;51709;54.912;8.316;2022-08-19T17:17:38;101236.59;;;26.00;52.97
65131;BME280;51709;54.912;8.316;2022-08-19T17:22:59;101227.50;;;26.69;51.33
65131;BME280;51709;54.912;8.316;2022-08-19T17:28:27;101229.59;;;25.78;53.62
65131;BME280;51709;54.912;8.316;2022-08-19T17:33:48;101231.97;;;25.01;55.76
65131;BME280;51709;54.912;8.316;2022-08-19T17:39:09;101239.47;;;24.83;56.10
65131;BME280;51709;54.912;8.316;2022-08-19T17:44:30;101241.94;;;24.73;56.63
65131;BME280;51709;54.912;8.316;2022-08-19T17:49:52;101239.28;;;24.13;58.10
65131;BME280;51709;54.912;8.316;2022-08-19T17:55:13;101248.94;;;23.63;59.65
65131;BME280;51709;54.912;8.316;2022-08-19T18:00:34;101241.94;;;23.37;60.09
65131;BME280;51709;54.912;8.316;2022-08-19T18:05:55;101251.25;;;23.29;60.31
65131;BME280;51709;54.912;8.316;2022-08-19T18:11:16;101245.69;;;23.07;61.10
65131;BME280;51709;54.912;8.316;2022-08-19T18:16:37;101246.41;;;22.84;61.58
65131;BME280;51709;54.912;8.316;2022-08-19T18:21:58;101242.50;;;22.36;63.17
65131;BME280;51709;54.912;8.316;2022-08-19T18:27:19;101242.69;;;22.06;63.97
65131;BME280;51709;54.912;8.316;2022-08-19T18:32:40;101240.19;;;21.90;64.33
65131;BME280;51709;54.912;8.316;2022-08-19T18:38:03;101238.47;;;21.61;65.06
65131;BME280;51709;54.912;8.316;2022-08-19T18:43:46;101243.66;;;21.47;65.35
65131;BME280;51709;54.912;8.316;2022-08-19T18:49:33;101239.72;;;21.25;66.02
65131;BME280;51709;54.912;8.316;2022-08-19T18:54:54;101246.13;;;21.05;66.58
65131;BME280;51709;54.912;8.316;2022-08-19T19:00:15;101245.34;;;20.88;66.83
65131;BME280;51709;54.912;8.316;2022-08-19T19:05:36;101248.59;;;20.77;67.08
65131;BME280;51709;54.912;8.316;2022-08-19T19:10:58;101258.59;;;20.69;67.32
65131;BME280;51709;54.912;8.316;2022-08-19T19:16:24;101254.41;;;20.51;68.46
65131;BME280;51709;54.912;8.316;2022-08-19T19:21:46;101255.25;;;20.35;68.71
65131;BME280;51709;54.912;8.316;2022-08-19T19:27:09;101258.47;;;20.24;69.49
65131;BME280;51709;54.912;8.316;2022-08-19T19:32:30;101254.69;;;20.14;70.12
65131;BME280;51709;54.912;8.316;2022-08-19T19:37:58;101261.16;;;20.07;70.71
65131;BME280;51709;54.912;8.316;2022-08-19T19:43:19;101254.25;;;20.06;70.93
65131;BME280;51709;54.912;8.316;2022-08-19T19:48:39;101257.22;;;19.99;71.16
65131;BME280;51709;54.912;8.316;2022-08-19T19:54:00;101253.50;;;19.88;71.97
65131;BME280;51709;54.912;8.316;2022-08-19T19:59:21;101263.44;;;19.79;73.04
65131;BME280;51709;54.912;8.316;2022-08-19T20:04:42;101261.25;;;19.71;73.53
65131;BME280;51709;54.912;8.316;2022-08-19T20:10:03;101264.97;;;19.67;73.93
65131;BME280;51709;54.912;8.316;2022-08-19T20:15:24;101259.66;;;19.69;74.53
65131;BME280;51709;54.912;8.316;2022-08-19T20:20:45;101252.88;;;19.66;74.48
65131;BME280;51709;54.912;8.316;2022-08-19T20:26:09;101248.41;;;19.68;75.12
65131;BME280;51709;54.912;8.316;2022-08-19T20:31:49;101254.88;;;19.77;74.66
65131;BME280;51709;54.912;8.316;2022-08-19T20:37:19;101252.22;;;19.79;74.71
65131;BME280;51709;54.912;8.316;2022-08-19T20:42:41;101252.28;;;19.77;75.22
65131;BME280;51709;54.912;8.316;2022-08-19T20:48:03;101241.44;;;19.69;75.99
65131;BME280;51709;54.912;8.316;2022-08-19T20:53:25;101240.91;;;19.62;75.99
65131;BME280;51709;54.912;8.316;2022-08-19T20:58:46;101255.97;;;19.57;76.38
65131;BME280;51709;54.912;8.316;2022-08-19T21:04:14;101258.63;;;19.55;76.95
65131;BME280;51709;54.912;8.316;2022-08-19T21:09:34;101256.88;;;19.56;76.73
65131;BME280;51709;54.912;8.316;2022-08-19T21:14:55;101264.59;;;19.58;77.07
65131;BME280;51709;54.912;8.316;2022-08-19T21:20:15;101253.41;;;19.55;77.67
65131;BME280;51709;54.912;8.316;2022-08-19T21:25:36;101255.88;;;19.59;78.19
65131;BME280;51709;54.912;8.316;2022-08-19T21:30:57;101254.06;;;19.43;79.46
65131;BME280;51709;54.912;8.316;2022-08-19T21:36:19;101261.56;;;19.32;80.02
65131;BME280;51709;54.912;8.316;2022-08-19T21:41:40;101259.13;;;19.29;80.33
65131;BME280;51709;54.912;8.316;2022-08-19T21:47:03;101259.88;;;19.31;80.80
65131;BME280;51709;54.912;8.316;2022-08-19T21:52:28;101264.31;;;19.29;81.10
65131;BME280;51709;54.912;8.316;2022-08-19T21:57:48;101267.47;;;19.35;81.02
65131;BME280;51709;54.912;8.316;2022-08-19T22:03:09;101263.59;;;19.27;81.19
65131;BME280;51709;54.912;8.316;2022-08-19T22:08:29;101250.81;;;19.22;81.24
65131;BME280;51709;54.912;8.316;2022-08-19T22:13:51;101245.91;;;19.16;81.03
65131;BME280;51709;54.912;8.316;2022-08-19T22:19:13;101242.84;;;19.07;81.31
65131;BME280;51709;54.912;8.316;2022-08-19T22:24:33;101244.84;;;19.02;81.45
65131;BME280;51709;54.912;8.316;2022-08-19T22:29:54;101252.19;;;18.94;81.29
65131;BME280;51709;54.912;8.316;2022-08-19T22:35:17;101250.63;;;18.90;81.37
65131;BME280;51709;54.912;8.316;2022-08-19T22:40:45;101250.72;;;18.88;81.33
65131;BME280;51709;54.912;8.316;2022-08-19T22:46:07;101256.81;;;18.87;81.21
65131;BME280;51709;54.912;8.316;2022-08-19T22:51:36;101248.19;;;18.87;81.03
65131;BME280;51709;54.912;8.316;2022-08-19T22:57:16;101244.88;;;18.83;81.19
65131;BME280;51709;54.912;8.316;2022-08-19T23:02:41;101253.41;;;18.87;80.91
65131;BME280;51709;54.912;8.316;2022-08-19T23:08:12;101269.47;;;18.95;80.55
65131;BME280;51709;54.912;8.316;2022-08-19T23:13:32;101278.06;;;18.97;80.58
65131;BME280;51709;54.912;8.316;2022-08-19T23:18:53;101279.81;;;18.97;80.50
65131;BME280;51709;54.912;8.316;2022-08-19T23:24:15;101294.34;;;19.01;80.35
65131;BME280;51709;54.912;8.316;2022-08-19T23:29:36;101301.47;;;18.97;80.16
65131;BME280;51709;54.912;8.316;2022-08-19T23:35:15;101303.69;;;19.05;80.10
65131;BME280;51709;54.912;8.316;2022-08-19T23:40:37;101302.25;;;18.99;79.81
65131;BME280;51709;54.912;8.316;2022-08-19T23:45:59;101300.56;;;18.98;79.76
65131;BME280;51709;54.912;8.316;2022-08-19T23:51:20;101284.38;;;18.91;79.97
65131;BME280;51709;54.912;8.316;2022-08-19T23:56:40;101299.50;;;18.83;79.83
